Meteo Giornale » Osservazioni meteo Gran Bretagna » Biggin Hill

ore: 11:50 - Osservazioni Meteo Biggin Hill
Lat. 51° 19' N Lon. 0° 2' E Alt. 183 metri s.l.m.

nuvoloso Europe/London

18 °C

Nuvoloso

Temp. 24 Ore

13 °C

19 °C

Ovest/Sud-Ovest

20.3 Km/h

Dew point 10 °C

Umidità 59 %

Visibilità  10 Km

Il sole sorge alle ore 05:18

Il sole tramonta alle ore 20:54

Data e Ora Cielo e Fenomeni T °C DP °C Um. % Pres. hPa Vis. km Vento km/h
Oggi h: 11:50 nuvoloso Nuvoloso 18 10 59 1011 10 O/SO 20.3
Oggi h: 11:20 nuvoloso Nuvoloso 17 9 59 1011 10 O/SO 20.3
Oggi h: 10:50 nuvoloso Nuvoloso 17 9 59 1011 10 O 20.3
Oggi h: 10:20 nuvoloso Nuvoloso 16 9 63 1011 10 O/SO 22.2
Oggi h: 09:50 nuvoloso Nuvoloso 16 10 67 1011 10 O/SO 18.5
Oggi h: 09:20 nuvoloso Nuvoloso 16 10 67 1011 10 O 18.5
Oggi h: 08:50 poco_nuvoloso Poco Nuvoloso 15 11 76 1011 10 O/SO 24
Oggi h: 08:20 poco_nuvoloso Poco Nuvoloso 14 11 82 1011 10 O 18.5
Oggi h: 07:50 sereno Sereno 14 11 82 1010 10 O/SO 14.8
Oggi h: 07:20 sereno Sereno 13 11 87 1010 10 SO 13
Oggi h: 06:50 sereno Sereno 13 11 87 1010 10 SO 13
Oggi h: 06:20 sereno Sereno 13 11 87 1010 10 SO 14.8
Ieri h: 21:50 nuvoloso_piovaschi Rovescio di Pioggia 14 12 87 1008 10 SO 20.3
Ieri h: 21:20 poco_nuvoloso Poco Nuvoloso 14 12 87 1008 10 SO 20.3
Ieri h: 20:50 poco_nuvoloso Rovescio nelle Vicinanze 14 12 87 1008 10 SO 22.2
Ieri h: 20:20 poco_nuvoloso Poco Nuvoloso 16 12 77 1007 10 S/SO 29.6
Ieri h: 19:50 nuvoloso Rovescio nelle Vicinanze 16 12 77 1007 10 S/SO 29.6
Ieri h: 19:20 nuvoloso Rovescio nelle Vicinanze 16 12 77 1007 10 S/SO 29.6
Ieri h: 18:50 nuvoloso Rovescio nelle Vicinanze 17 12 72 1007 10 SO 20.3
Ieri h: 18:20 nuvoloso Rovescio nelle Vicinanze 15 12 82 1007 10 SO 9.3
Ieri h: 17:50 nuvoloso_piovaschi Debole Rovescio di Pioggia 17 12 72 1008 4 SO 27.8
Ieri h: 17:20 nuvoloso Rovescio nelle Vicinanze 17 11 67 1007 10 SO 31.5
Ieri h: 16:50 nuvoloso Rovescio nelle Vicinanze 17 12 72 1008 4 O/SO 18.5
Ieri h: 16:20 nuvoloso Rovescio nelle Vicinanze 17 11 67 1007 10 S/SO 29.6
Ieri h: 15:50 nuvoloso Rovescio nelle Vicinanze 17 15 88 1008 10 SO 18.5
Ieri h: 15:20 nuvoloso_piovaschi Debole Rovescio di Pioggia 14 12 87 1008 3 O/SO 22.2
Ieri h: 14:50 nuvoloso_piovaschi Rovescio di Pioggia 14 12 87 1008 4 O/SO 27.8
Ieri h: 14:20 nuvoloso Rovescio nelle Vicinanze 19 12 63 1007 10 SO 31.5
Ieri h: 13:50 nuvoloso Nuvoloso 19 12 63 1007 10 SO 29.6
Ieri h: 13:20 nuvoloso Rovescio nelle Vicinanze 19 13 68 1007 10 SO 27.8
Ieri h: 12:50 nuvoloso Rovescio nelle Vicinanze 18 15 82 1007 10 O/SO 22.2